CSCL Fuzhou — ELYA7 — position and weather

sailwx.info

Track history (hours):
 
Tides and Currents Weather Stations Pressure Air Temp Water Temp Dewpoint Dewpoint Depression Visibility Wind Speed Wind Dir Waves Ship Positions

CSCL Fuzhou

Last reported at 2017-Aug-18 11:29 UTC. Time now 2017-Aug-19 07:39 UTC.
Position N 25°09' E 121°21'.

Length 207.4 m; beam 29.8 m; draft 11.4 m.

Type: Ship (hazmat cat A). MMSI: 636016483.

Date/timePositionNaut miles runAvg speedWind from/ knotsBaromVisibWave heightAir tempDewpointWater temp
2017-Aug-18 11:29N 25°09' E 121°21'4 0.6
2017-Aug-18 04:48N 25°12' E 121°18'116 6.8
2017-Aug-17 11:45N 23°41' E 119°58'917.1
2017-Aug-17 11:15N 23°33' E 119°54'717.1
2017-Aug-17 10:51N 23°26' E 119°54'3813.8
2017-Aug-17 08:04N 22°49' E 120°04'119.7
2017-Aug-17 08:00N 22°47' E 120°04'1019.4
2017-Aug-17 07:30N 22°39' E 120°10'816.2
2017-Aug-17 07:00N 22°33' E 120°15'4 8.5
2017-Aug-17 06:30N 22°33' E 120°20'0 0.0
2017-Aug-16 17:10N 22°33' E 120°19'1 7.1
2017-Aug-16 17:00N 22°33' E 120°18'4 8.1
2017-Aug-16 16:30N 22°32' E 120°14'612.5
2017-Aug-16 16:00N 22°30' E 120°07'917.4
2017-Aug-16 15:30N 22°29' E 119°58'918.4
2017-Aug-16 15:00N 22°29' E 119°48'  
2017-Aug-10 17:01N 01°12' E 103°55'116.7
2017-Aug-10 16:59N 01°12' E 103°55'816.2
2017-Aug-10 16:30N 01°09' E 103°48'815.9
2017-Aug-10 16:00N 01°04' E 103°42'713.5
2017-Aug-10 15:30N 01°05' E 103°35'815.4
2017-Aug-10 14:59N 01°13' E 103°32'510.5
2017-Aug-10 14:30N 01°18' E 103°33'5 4.7
2017-Aug-10 13:30N 01°22' E 103°33'0 0.0
2017-Aug-10 12:18N 01°22' E 103°33'0 0.0
2017-Aug-10 11:42N 01°22' E 103°33'0 0.0
2017-Aug-10 11:21N 01°22' E 103°33'0 0.0
2017-Aug-10 10:54N 01°22' E 103°33'0 0.0
2017-Aug-10 10:30N 01°22' E 103°33'0 0.0
2017-Aug-10 09:51N 01°22' E 103°33'0 0.0
2017-Aug-10 09:24N 01°22' E 103°33'0 0.0
2017-Aug-10 07:45N 01°22' E 103°33'0 0.0
2017-Aug-10 07:24N 01°22' E 103°33'0 0.0
2017-Aug-10 06:54N 01°22' E 103°33'0 0.0
2017-Aug-10 05:00N 01°22' E 103°33'0 0.0
2017-Aug-10 04:30N 01°22' E 103°33'0 0.0
2017-Aug-10 04:00N 01°22' E 103°33'0 0.0
2017-Aug-10 03:30N 01°22' E 103°33'0 0.0
2017-Aug-10 02:57N 01°22' E 103°33'0 0.0
2017-Aug-10 02:27N 01°22' E 103°33'0 0.0
2017-Aug-10 01:51N 01°22' E 103°33'0 0.0
2017-Aug-10 01:30N 01°22' E 103°33'0 0.0
2017-Aug-10 00:51N 01°22' E 103°33'0 0.0
2017-Aug-10 00:30N 01°22' E 103°33'0 0.0
2017-Aug-09 23:57N 01°22' E 103°33'0 0.0
2017-Aug-09 23:30N 01°22' E 103°33'0 0.0
2017-Aug-09 23:00N 01°22' E 103°33'0 0.0
2017-Aug-09 22:30N 01°22' E 103°33'0 0.0
2017-Aug-09 21:57N 01°22' E 103°33'0 0.0
2017-Aug-09 21:30N 01°22' E 103°33'2 3.9
2017-Aug-09 21:00N 01°20' E 103°33'510.4
2017-Aug-09 20:30N 01°15' E 103°32'4 7.3
2017-Aug-09 19:59N 01°12' E 103°30'3 7.2
2017-Aug-09 19:30N 01°11' E 103°27'5 8.7
2017-Aug-09 18:59N 01°13' E 103°23'5 9.8
2017-Aug-09 18:30N 01°16' E 103°20'30214.6
2017-Aug-08 21:50N 05°08' E 100°06'617.7
2017-Aug-08 21:30N 05°13' E 100°05'917.9
2017-Aug-08 21:00N 05°22' E 100°05'1216.4
2017-Aug-08 20:15N 05°34' E 100°10'911.8
2017-Aug-08 19:31N 05°31' E 100°18'013.2
2017-Aug-08 19:30N 05°31' E 100°18'611.6
2017-Aug-08 19:00N 05°26' E 100°21'1 2.2
2017-Aug-08 18:30N 05°25' E 100°22'0 0.0
2017-Aug-08 18:00N 05°25' E 100°22'0 0.0
2017-Aug-08 17:30N 05°25' E 100°22'0 0.1
2017-Aug-08 17:00N 05°25' E 100°22'0 0.0
2017-Aug-08 16:30N 05°25' E 100°22'0 0.0
2017-Aug-08 16:00N 05°25' E 100°22'0 0.1
2017-Aug-08 15:30N 05°25' E 100°22'0 0.0
2017-Aug-08 14:48N 05°25' E 100°22'0 0.0
2017-Aug-08 14:30N 05°25' E 100°22'0 0.0
2017-Aug-08 14:00N 05°25' E 100°22'0 0.0
2017-Aug-08 13:18N 05°25' E 100°22'0 0.1
2017-Aug-08 12:54N 05°25' E 100°22'0 0.1
2017-Aug-08 12:12N 05°25' E 100°22'0 0.3
2017-Aug-08 12:00N 05°25' E 100°22'0 0.0
2017-Aug-08 11:30N 05°25' E 100°22'  
Track history (hours):
 
Tides and Currents Weather Stations Pressure Air Temp Water Temp Dewpoint Dewpoint Depression Visibility Wind Speed Wind Dir Waves Ship Positions

CSCL Fuzhou

Last reported at 2017-Aug-18 11:29 UTC. Time now 2017-Aug-19 07:39 UTC.
Position N 25°09' E 121°21'.

Length 207.4 m; beam 29.8 m; draft 11.4 m.

Type: Ship (hazmat cat A). MMSI: 636016483.

Date/timePositionNaut miles runAvg speedWind from/ knotsBaromVisibWave heightAir tempDewpointWater temp
2017-Aug-18 11:29N 25°09' E 121°21'4 0.6
2017-Aug-18 04:48N 25°12' E 121°18'116 6.8
2017-Aug-17 11:45N 23°41' E 119°58'917.1
2017-Aug-17 11:15N 23°33' E 119°54'717.1
2017-Aug-17 10:51N 23°26' E 119°54'3813.8
2017-Aug-17 08:04N 22°49' E 120°04'119.7
2017-Aug-17 08:00N 22°47' E 120°04'1019.4
2017-Aug-17 07:30N 22°39' E 120°10'816.2
2017-Aug-17 07:00N 22°33' E 120°15'4 8.5
2017-Aug-17 06:30N 22°33' E 120°20'0 0.0
2017-Aug-16 17:10N 22°33' E 120°19'1 7.1
2017-Aug-16 17:00N 22°33' E 120°18'4 8.1
2017-Aug-16 16:30N 22°32' E 120°14'612.5
2017-Aug-16 16:00N 22°30' E 120°07'917.4
2017-Aug-16 15:30N 22°29' E 119°58'918.4
2017-Aug-16 15:00N 22°29' E 119°48'  
2017-Aug-10 17:01N 01°12' E 103°55'116.7
2017-Aug-10 16:59N 01°12' E 103°55'816.2
2017-Aug-10 16:30N 01°09' E 103°48'815.9
2017-Aug-10 16:00N 01°04' E 103°42'713.5
2017-Aug-10 15:30N 01°05' E 103°35'815.4
2017-Aug-10 14:59N 01°13' E 103°32'510.5
2017-Aug-10 14:30N 01°18' E 103°33'5 4.7
2017-Aug-10 13:30N 01°22' E 103°33'0 0.0
2017-Aug-10 12:18N 01°22' E 103°33'0 0.0
2017-Aug-10 11:42N 01°22' E 103°33'0 0.0
2017-Aug-10 11:21N 01°22' E 103°33'0 0.0
2017-Aug-10 10:54N 01°22' E 103°33'0 0.0
2017-Aug-10 10:30N 01°22' E 103°33'0 0.0
2017-Aug-10 09:51N 01°22' E 103°33'0 0.0
2017-Aug-10 09:24N 01°22' E 103°33'0 0.0
2017-Aug-10 07:45N 01°22' E 103°33'0 0.0
2017-Aug-10 07:24N 01°22' E 103°33'0 0.0
2017-Aug-10 06:54N 01°22' E 103°33'0 0.0
2017-Aug-10 05:00N 01°22' E 103°33'0 0.0
2017-Aug-10 04:30N 01°22' E 103°33'0 0.0
2017-Aug-10 04:00N 01°22' E 103°33'0 0.0
2017-Aug-10 03:30N 01°22' E 103°33'0 0.0
2017-Aug-10 02:57N 01°22' E 103°33'0 0.0
2017-Aug-10 02:27N 01°22' E 103°33'0 0.0
2017-Aug-10 01:51N 01°22' E 103°33'0 0.0
2017-Aug-10 01:30N 01°22' E 103°33'0 0.0
2017-Aug-10 00:51N 01°22' E 103°33'0 0.0
2017-Aug-10 00:30N 01°22' E 103°33'0 0.0
2017-Aug-09 23:57N 01°22' E 103°33'0 0.0
2017-Aug-09 23:30N 01°22' E 103°33'0 0.0
2017-Aug-09 23:00N 01°22' E 103°33'0 0.0
2017-Aug-09 22:30N 01°22' E 103°33'0 0.0
2017-Aug-09 21:57N 01°22' E 103°33'0 0.0
2017-Aug-09 21:30N 01°22' E 103°33'2 3.9
2017-Aug-09 21:00N 01°20' E 103°33'510.4
2017-Aug-09 20:30N 01°15' E 103°32'4 7.3
2017-Aug-09 19:59N 01°12' E 103°30'3 7.2
2017-Aug-09 19:30N 01°11' E 103°27'5 8.7
2017-Aug-09 18:59N 01°13' E 103°23'5 9.8
2017-Aug-09 18:30N 01°16' E 103°20'30214.6
2017-Aug-08 21:50N 05°08' E 100°06'617.7
2017-Aug-08 21:30N 05°13' E 100°05'917.9
2017-Aug-08 21:00N 05°22' E 100°05'1216.4
2017-Aug-08 20:15N 05°34' E 100°10'911.8
2017-Aug-08 19:31N 05°31' E 100°18'013.2
2017-Aug-08 19:30N 05°31' E 100°18'611.6
2017-Aug-08 19:00N 05°26' E 100°21'1 2.2
2017-Aug-08 18:30N 05°25' E 100°22'0 0.0
2017-Aug-08 18:00N 05°25' E 100°22'0 0.0
2017-Aug-08 17:30N 05°25' E 100°22'0 0.1
2017-Aug-08 17:00N 05°25' E 100°22'0 0.0
2017-Aug-08 16:30N 05°25' E 100°22'0 0.0
2017-Aug-08 16:00N 05°25' E 100°22'0 0.1
2017-Aug-08 15:30N 05°25' E 100°22'0 0.0
2017-Aug-08 14:48N 05°25' E 100°22'0 0.0
2017-Aug-08 14:30N 05°25' E 100°22'0 0.0
2017-Aug-08 14:00N 05°25' E 100°22'0 0.0
2017-Aug-08 13:18N 05°25' E 100°22'0 0.1
2017-Aug-08 12:54N 05°25' E 100°22'0 0.1
2017-Aug-08 12:12N 05°25' E 100°22'0 0.3
2017-Aug-08 12:00N 05°25' E 100°22'0 0.0
2017-Aug-08 11:30N 05°25' E 100°22'  

Dump ship's entire track history